createdAt,value
2022-09-04T00:02:45.015Z,80.14
2022-09-04T00:05:53.239Z,81.04
2022-09-04T00:08:55.682Z,81.25
2022-09-04T00:11:22.562Z,80.69
2022-09-04T00:14:07.095Z,81.13
2022-09-04T00:16:51.220Z,81.39
2022-09-04T00:19:36.210Z,81.01
2022-09-04T00:22:21.716Z,81.12
2022-09-04T00:25:01.374Z,81.13
2022-09-04T00:27:36.106Z,81.53
2022-09-04T00:30:11.507Z,81.30
2022-09-04T00:32:54.928Z,81.78
2022-09-04T00:35:32.454Z,81.56
2022-09-04T00:38:13.490Z,81.68
2022-09-04T00:40:50.047Z,81.52
2022-09-04T00:43:49.491Z,81.94
2022-09-04T00:46:41.415Z,82.06
2022-09-04T00:49:20.294Z,82.50
2022-09-04T00:52:05.591Z,82.45
2022-09-04T00:54:47.783Z,82.37
2022-09-04T00:57:45.464Z,82.84
2022-09-04T01:00:19.630Z,83.59
2022-09-04T01:03:07.470Z,83.48
2022-09-04T01:06:04.013Z,83.56
2022-09-04T01:08:40.831Z,83.87
2022-09-04T01:11:27.537Z,84.00
2022-09-04T01:14:13.420Z,83.95
2022-09-04T01:16:48.485Z,84.42
2022-09-04T01:19:56.147Z,84.43
2022-09-04T01:22:41.447Z,84.71
2022-09-04T01:25:30.794Z,84.69
2022-09-04T01:28:22.331Z,84.99
2022-09-04T01:31:26.619Z,85.24
2022-09-04T01:34:17.954Z,85.06
2022-09-04T01:37:05.868Z,85.20
2022-09-04T01:39:35.856Z,85.20
2022-09-04T01:42:12.959Z,85.38
2022-09-04T01:44:39.855Z,85.24
2022-09-04T01:47:28.832Z,85.39
2022-09-04T01:50:02.043Z,85.53
2022-09-04T01:53:07.164Z,85.91
2022-09-04T01:56:04.396Z,85.67
2022-09-04T01:58:40.817Z,85.81
2022-09-04T02:01:19.133Z,85.35
2022-09-04T02:04:08.181Z,85.68
2022-09-04T02:06:44.144Z,85.65
2022-09-04T02:09:16.592Z,85.86
2022-09-04T02:11:56.827Z,85.76
2022-09-04T02:14:27.507Z,86.49
2022-09-04T02:17:10.681Z,86.50
2022-09-04T02:20:01.497Z,86.24
2022-09-04T02:22:31.132Z,86.28
2022-09-04T02:25:11.395Z,86.62
2022-09-04T02:28:03.845Z,86.23
2022-09-04T02:30:41.157Z,86.39
2022-09-04T02:33:18.869Z,86.92
2022-09-04T02:36:44.580Z,87.11
2022-09-04T02:39:42.181Z,85.89
2022-09-04T02:42:18.150Z,86.14
2022-09-04T02:44:53.628Z,85.95
2022-09-04T02:47:38.656Z,86.24
2022-09-04T02:50:11.479Z,86.20
2022-09-04T02:52:56.895Z,86.04
2022-09-04T02:55:48.511Z,86.96
2022-09-04T02:58:27.274Z,86.82
2022-09-04T03:01:03.065Z,86.88
2022-09-04T03:03:40.802Z,86.24
2022-09-04T03:06:13.554Z,85.60
2022-09-04T03:08:47.093Z,86.21
2022-09-04T03:11:17.959Z,86.26
2022-09-04T03:13:59.391Z,86.20
2022-09-04T03:16:45.021Z,85.66
2022-09-04T03:19:40.367Z,86.51
2022-09-04T03:22:26.444Z,86.92
2022-09-04T03:25:24.019Z,87.26
2022-09-04T03:27:50.856Z,88.02
2022-09-04T03:30:18.564Z,88.58
2022-09-04T03:32:57.171Z,88.94
2022-09-04T03:35:42.120Z,92.07
2022-09-04T03:38:16.602Z,94.33
2022-09-04T03:41:13.161Z,96.52
2022-09-04T03:43:44.525Z,97.98
2022-09-04T03:46:17.316Z,98.94
2022-09-04T03:48:47.156Z,100.00
2022-09-04T03:51:32.464Z,100.00
2022-09-04T03:54:26.027Z,100.00
2022-09-04T03:57:05.035Z,100.00
2022-09-04T03:59:56.594Z,100.00
2022-09-04T04:02:34.172Z,100.00
2022-09-04T04:05:36.956Z,98.65
2022-09-04T04:08:22.597Z,96.29
2022-09-04T04:11:35.260Z,94.15
2022-09-04T04:14:38.329Z,90.93
2022-09-04T04:17:12.751Z,87.48
2022-09-04T04:20:13.253Z,83.84
2022-09-04T04:22:39.971Z,78.49
2022-09-04T04:25:34.399Z,75.38
2022-09-04T04:28:17.151Z,71.93
2022-09-04T04:30:54.643Z,68.35
2022-09-04T04:33:24.441Z,64.79
2022-09-04T04:35:57.415Z,62.20
2022-09-04T04:38:34.534Z,59.23
2022-09-04T04:41:30.825Z,58.82
2022-09-04T04:44:03.700Z,56.11
2022-09-04T04:46:56.194Z,51.93
2022-09-04T04:49:48.608Z,50.07
2022-09-04T04:52:29.846Z,47.65
2022-09-04T04:55:18.003Z,46.27
2022-09-04T04:57:49.414Z,44.11
2022-09-04T05:00:40.234Z,42.13
2022-09-04T05:03:21.644Z,40.85
2022-09-04T05:06:01.057Z,39.80
2022-09-04T05:08:39.800Z,38.46
2022-09-04T05:11:16.482Z,37.38
2022-09-04T05:13:59.404Z,36.52
2022-09-04T05:16:35.283Z,35.65
2022-09-04T05:59:28.283Z,37.22
2022-09-04T06:02:26.861Z,34.92
2022-09-04T06:05:19.148Z,33.09
2022-09-04T06:08:07.055Z,31.68
2022-09-04T06:11:18.508Z,30.59
2022-09-04T06:13:59.465Z,29.42
2022-09-04T06:17:01.702Z,28.37
2022-09-04T06:19:53.272Z,26.88
2022-09-04T06:22:39.763Z,26.07
2022-09-04T06:25:13.780Z,25.52
2022-09-04T06:27:52.343Z,25.03
2022-09-04T06:30:19.482Z,24.72
2022-09-04T06:33:17.353Z,24.04
2022-09-04T06:36:12.334Z,23.50
2022-09-04T06:38:57.414Z,22.95
2022-09-04T06:41:39.202Z,22.67
2022-09-04T06:44:24.544Z,23.11
2022-09-04T06:47:12.848Z,23.11
2022-09-04T06:50:11.681Z,23.53
2022-09-04T06:52:57.671Z,23.54
2022-09-04T06:55:50.985Z,24.34
2022-09-04T06:58:46.187Z,24.91
2022-09-04T07:01:50.506Z,25.08
2022-09-04T07:04:35.731Z,25.10
2022-09-04T07:07:26.870Z,25.60
2022-09-04T07:10:01.495Z,26.04
2022-09-04T07:12:42.830Z,25.02
2022-09-04T07:15:31.564Z,25.01
2022-09-04T07:18:09.631Z,25.17
2022-09-04T07:20:49.249Z,23.89
2022-09-04T07:23:27.632Z,23.00
2022-09-04T07:26:05.275Z,23.81
2022-09-04T07:28:52.069Z,24.08
2022-09-04T07:31:22.337Z,24.84
2022-09-04T07:34:07.830Z,23.51
2022-09-04T07:37:00.163Z,22.30
2022-09-04T07:39:50.797Z,22.18
2022-09-04T07:42:26.580Z,21.55
2022-09-04T07:45:06.026Z,21.41
2022-09-04T07:47:57.587Z,22.61
2022-09-04T07:51:16.833Z,23.47
2022-09-04T07:53:49.545Z,24.19
2022-09-04T07:56:28.636Z,24.06
2022-09-04T07:59:21.661Z,21.84
2022-09-04T08:02:06.681Z,23.55
2022-09-04T08:04:51.739Z,22.59
2022-09-04T08:07:42.009Z,23.17
2022-09-04T08:10:33.866Z,21.69
2022-09-04T08:13:14.139Z,20.57
2022-09-04T08:15:51.471Z,18.00
2022-09-04T08:18:33.671Z,17.48
2022-09-04T08:21:12.094Z,16.95
2022-09-04T08:23:59.407Z,16.62
2022-09-04T08:26:51.871Z,17.73
2022-09-04T08:29:52.719Z,17.55
2022-09-04T08:32:28.555Z,18.85
2022-09-04T08:35:23.284Z,20.36
2022-09-04T08:38:08.587Z,21.44
2022-09-04T08:40:44.383Z,22.06
2022-09-04T08:43:48.597Z,22.49
2022-09-04T08:47:12.829Z,22.41
2022-09-04T08:50:04.295Z,22.56
2022-09-04T08:53:12.369Z,23.77
2022-09-04T08:56:22.662Z,25.10
2022-09-04T08:59:27.299Z,25.43
2022-09-04T09:02:09.074Z,24.27
2022-09-04T09:05:00.812Z,23.82
2022-09-04T09:07:33.767Z,22.14
2022-09-04T09:10:34.626Z,22.55
2022-09-04T09:13:46.127Z,21.47
2022-09-04T09:16:36.494Z,20.64
2022-09-04T09:19:25.929Z,20.24
2022-09-04T09:22:33.860Z,20.47
2022-09-04T09:25:11.974Z,20.92
2022-09-04T09:27:38.824Z,21.24
2022-09-04T09:30:16.668Z,21.30
2022-09-04T09:33:08.428Z,21.50
2022-09-04T09:35:55.891Z,21.11
2022-09-04T09:38:36.024Z,19.19
2022-09-04T09:41:37.638Z,18.20
2022-09-04T09:44:49.496Z,19.23
2022-09-04T09:47:40.853Z,19.11
2022-09-04T09:50:16.788Z,18.85
2022-09-04T09:52:52.770Z,18.01
2022-09-04T09:55:31.847Z,17.99
2022-09-04T09:58:13.788Z,17.38
2022-09-04T10:01:09.449Z,17.48
2022-09-04T10:03:39.207Z,17.12
2022-09-04T10:06:21.882Z,18.29
2022-09-04T10:08:51.405Z,19.63
2022-09-04T10:11:30.073Z,19.72
2022-09-04T10:14:02.508Z,20.01
2022-09-04T10:17:03.550Z,20.02
2022-09-04T10:20:08.740Z,20.28
2022-09-04T10:22:57.317Z,21.38
2022-09-04T10:25:31.158Z,20.73
2022-09-04T10:28:19.750Z,18.90
2022-09-04T10:31:05.171Z,16.92
2022-09-04T10:34:29.746Z,16.04
2022-09-04T10:37:15.186Z,15.90
2022-09-04T10:40:22.376Z,15.33
2022-09-04T10:43:26.627Z,15.44
2022-09-04T10:45:56.184Z,17.29
2022-09-04T10:48:54.269Z,18.27
2022-09-04T10:51:39.541Z,17.73
2022-09-04T10:54:30.737Z,18.18
2022-09-04T10:57:18.536Z,19.74
2022-09-04T11:00:21.996Z,20.36
2022-09-04T11:03:27.960Z,20.90
2022-09-04T11:06:15.733Z,21.44
2022-09-04T11:09:13.981Z,21.64
2022-09-04T11:11:46.752Z,22.24
2022-09-04T11:14:25.508Z,22.51
2022-09-04T11:17:37.734Z,22.58
2022-09-04T11:20:26.099Z,22.58
2022-09-04T11:23:11.348Z,21.87
2022-09-04T11:26:11.209Z,22.24
2022-09-04T11:29:12.811Z,22.36
2022-09-04T11:31:58.451Z,21.90
2022-09-04T11:35:02.453Z,21.06
2022-09-04T11:37:57.770Z,21.40
2022-09-04T11:40:43.484Z,21.66
2022-09-04T11:43:32.199Z,22.23
2022-09-04T11:46:30.262Z,22.83
2022-09-04T11:49:15.668Z,23.57
2022-09-04T11:51:45.327Z,22.77
2022-09-04T11:54:33.538Z,22.29
2022-09-04T11:57:04.815Z,21.46
2022-09-04T12:00:10.980Z,20.62
2022-09-04T12:03:05.571Z,18.94
2022-09-04T12:05:47.163Z,17.46
2022-09-04T12:08:32.679Z,15.87
2022-09-04T12:11:21.134Z,15.42
2022-09-04T12:14:02.054Z,14.55
2022-09-04T12:16:47.633Z,13.09
2022-09-04T12:19:50.427Z,13.16
2022-09-04T12:22:36.337Z,13.85
2022-09-04T12:25:26.169Z,15.06
2022-09-04T12:28:08.877Z,15.78
2022-09-04T12:30:54.408Z,17.02
2022-09-04T12:33:36.515Z,17.29
2022-09-04T12:36:15.468Z,18.57
2022-09-04T12:39:04.108Z,18.50
2022-09-04T12:41:46.852Z,18.19
2022-09-04T12:44:42.298Z,17.84
2022-09-04T12:47:15.609Z,18.59
2022-09-04T12:50:37.662Z,19.35
2022-09-04T12:53:32.163Z,19.10
2022-09-04T12:56:12.610Z,18.54
2022-09-04T12:59:11.485Z,17.65
2022-09-04T13:02:09.831Z,17.50
2022-09-04T13:04:49.541Z,16.75
2022-09-04T13:07:54.534Z,16.36
2022-09-04T13:11:08.896Z,15.95
2022-09-04T13:13:48.059Z,15.00
2022-09-04T13:16:41.227Z,15.73
2022-09-04T13:19:49.578Z,15.90
2022-09-04T13:22:39.591Z,16.26
2022-09-04T13:25:49.637Z,17.76
2022-09-04T13:28:45.369Z,19.11
2022-09-04T13:31:43.435Z,19.70
2022-09-04T13:34:13.515Z,20.52
2022-09-04T13:36:49.728Z,21.43
2022-09-04T13:39:31.810Z,21.50
2022-09-04T13:42:08.870Z,22.82
2022-09-04T13:44:40.944Z,22.55
2022-09-04T13:47:16.438Z,23.23
2022-09-04T13:49:53.415Z,23.35
2022-09-04T13:52:34.629Z,23.64
2022-09-04T13:55:06.066Z,23.95
2022-09-04T13:57:40.191Z,24.35
2022-09-04T14:00:08.134Z,23.84
2022-09-04T14:02:36.796Z,23.94
2022-09-04T14:05:25.710Z,23.08
2022-09-04T14:08:04.213Z,22.69
2022-09-04T14:10:55.846Z,22.71
2022-09-04T14:13:33.165Z,22.79
2022-09-04T14:16:11.645Z,22.77
2022-09-04T14:19:13.450Z,22.86
2022-09-04T14:22:02.519Z,23.71
2022-09-04T14:24:56.448Z,24.35
2022-09-04T14:27:48.387Z,24.65
2022-09-04T14:30:16.940Z,24.71
2022-09-04T14:33:07.256Z,25.43
2022-09-04T14:35:46.723Z,25.45
2022-09-04T14:38:35.250Z,25.94
2022-09-04T14:41:35.853Z,25.81
2022-09-04T14:44:17.418Z,25.94
2022-09-04T14:47:09.802Z,25.76
2022-09-04T14:49:48.261Z,25.37
2022-09-04T14:52:28.143Z,25.57
2022-09-04T14:54:58.167Z,25.13
2022-09-04T14:57:43.092Z,24.64
2022-09-04T15:00:17.417Z,25.24
2022-09-04T15:03:13.337Z,25.67
2022-09-04T15:05:56.711Z,25.45
2022-09-04T15:08:39.876Z,25.99
2022-09-04T15:11:13.260Z,26.01
2022-09-04T15:13:53.319Z,26.65
2022-09-04T15:16:23.392Z,26.77
2022-09-04T15:19:29.017Z,27.68
2022-09-04T15:22:18.883Z,28.19
2022-09-04T15:25:09.007Z,28.50
2022-09-04T15:27:46.115Z,28.64
2022-09-04T15:30:33.611Z,29.05
2022-09-04T15:33:08.233Z,29.30
2022-09-04T15:35:36.010Z,29.60
2022-09-04T15:38:21.160Z,29.83
2022-09-04T15:41:16.780Z,30.32
2022-09-04T15:43:51.546Z,30.45
2022-09-04T15:46:33.181Z,30.68
2022-09-04T15:49:41.968Z,31.17
2022-09-04T15:52:12.691Z,31.68
2022-09-04T15:54:42.230Z,31.95
2022-09-04T15:57:20.120Z,32.48
2022-09-04T15:59:59.077Z,32.79
2022-09-04T16:03:17.446Z,33.55
2022-09-04T16:05:52.509Z,34.34
2022-09-04T16:08:26.165Z,35.22
2022-09-04T16:11:20.982Z,35.49
2022-09-04T16:13:50.611Z,36.51
2022-09-04T16:16:25.876Z,36.98
2022-09-04T16:18:52.714Z,37.61
2022-09-04T16:21:40.694Z,37.74
2022-09-04T16:24:30.725Z,38.13
2022-09-04T16:26:58.852Z,38.46
2022-09-04T16:29:36.369Z,38.76
2022-09-04T16:32:09.851Z,39.52
2022-09-04T16:34:45.277Z,39.88
2022-09-04T16:37:19.329Z,39.95
2022-09-04T16:39:59.251Z,40.78
2022-09-04T16:42:45.780Z,41.06
2022-09-04T16:45:30.511Z,42.30
2022-09-04T16:48:15.791Z,43.86
2022-09-04T16:51:40.343Z,45.02
2022-09-04T16:54:17.262Z,45.60
2022-09-04T16:56:53.402Z,46.79
2022-09-04T17:00:22.462Z,47.69
2022-09-04T17:02:52.076Z,48.63
2022-09-04T17:05:28.794Z,49.74
2022-09-04T17:08:07.630Z,50.76
2022-09-04T17:10:59.566Z,51.61
2022-09-04T17:14:08.550Z,52.63
2022-09-04T17:17:31.408Z,54.04
2022-09-04T17:20:23.089Z,55.00
2022-09-04T17:28:59.415Z,56.56
2022-09-04T17:29:10.111Z,55.88
2022-09-04T17:29:58.527Z,56.87
2022-09-04T17:36:41.748Z,58.23
2022-09-04T17:40:39.844Z,58.76
2022-09-04T17:40:48.837Z,59.14
2022-09-04T17:42:08.344Z,59.81
2022-09-04T17:45:06.190Z,60.91
2022-09-04T17:47:41.589Z,61.36
2022-09-04T17:50:14.000Z,61.12
2022-09-04T17:53:01.618Z,61.51
2022-09-04T17:55:38.727Z,61.71
2022-09-04T17:58:21.990Z,61.94
2022-09-04T18:01:14.462Z,62.18
2022-09-04T18:04:22.248Z,63.45
2022-09-04T18:07:50.990Z,63.69
2022-09-04T18:10:12.016Z,63.90
2022-09-04T18:13:36.453Z,64.94
2022-09-04T18:16:18.282Z,66.09
2022-09-04T18:18:54.685Z,66.99
2022-09-04T18:21:37.230Z,66.75
2022-09-04T18:24:19.309Z,67.70
2022-09-04T18:27:02.556Z,67.73
2022-09-04T18:36:15.587Z,68.25
2022-09-04T18:37:22.650Z,69.25
2022-09-04T18:37:25.323Z,68.65
2022-09-04T18:39:11.585Z,70.12
2022-09-04T18:47:17.407Z,70.34
2022-09-04T18:50:22.333Z,70.74
2022-09-04T18:50:33.994Z,71.25
2022-09-04T18:51:20.148Z,71.75
2022-09-04T18:54:10.015Z,71.82
2022-09-04T18:56:45.325Z,72.34
2022-09-04T18:59:24.813Z,72.55
2022-09-04T19:02:11.702Z,73.06
2022-09-04T19:05:00.499Z,73.48
2022-09-04T19:07:35.262Z,74.14
2022-09-04T19:10:17.258Z,74.65
2022-09-04T19:12:56.047Z,74.89
2022-09-04T19:15:55.915Z,75.10
2022-09-04T19:18:43.624Z,75.29
2022-09-04T19:21:14.810Z,75.63
2022-09-04T19:23:41.921Z,75.88
2022-09-04T19:26:38.481Z,75.78
2022-09-04T19:29:11.166Z,75.57
2022-09-04T19:31:44.416Z,76.01
2022-09-04T19:34:28.416Z,75.87
2022-09-04T19:37:50.224Z,76.09
2022-09-04T19:46:05.271Z,77.26
2022-09-04T19:46:07.278Z,76.41
2022-09-04T19:46:28.250Z,76.05
2022-09-04T19:50:54.040Z,76.21
2022-09-04T19:53:30.049Z,76.74
2022-09-04T19:55:24.594Z,76.71
2022-09-04T19:58:11.943Z,77.35
2022-09-04T20:00:54.873Z,77.91
2022-09-04T20:03:43.249Z,77.99
2022-09-04T20:06:32.653Z,77.70
2022-09-04T20:09:02.186Z,77.91
2022-09-04T20:11:40.932Z,77.90
2022-09-04T20:14:19.691Z,77.66
2022-09-04T20:17:01.021Z,77.46
2022-09-04T20:19:51.525Z,77.62
2022-09-04T20:22:37.356Z,77.74
2022-09-04T20:25:04.088Z,77.90
2022-09-04T20:27:36.521Z,78.09
2022-09-04T20:30:12.742Z,78.10
2022-09-04T20:32:53.938Z,78.37
2022-09-04T20:35:44.987Z,78.22
2022-09-04T20:38:33.120Z,78.25
2022-09-04T20:41:20.333Z,78.31
2022-09-04T20:44:03.474Z,78.37
2022-09-04T20:52:43.030Z,78.71
2022-09-04T20:52:58.245Z,78.78
2022-09-04T20:53:05.902Z,78.74
2022-09-04T20:55:46.275Z,78.72
2022-09-04T21:03:11.525Z,78.73
2022-09-04T21:03:20.865Z,78.29
2022-09-04T21:04:42.610Z,78.07
2022-09-04T21:07:37.958Z,78.01
2022-09-04T21:10:24.002Z,77.65
2022-09-04T21:13:14.025Z,77.82
2022-09-04T21:15:47.142Z,77.14
2022-09-04T21:18:22.599Z,77.12
2022-09-04T21:20:59.794Z,76.85
2022-09-04T21:24:03.244Z,77.12
2022-09-04T21:26:36.840Z,76.56
2022-09-04T21:29:23.743Z,76.50
2022-09-04T21:32:21.097Z,76.58
2022-09-04T21:35:13.396Z,75.83
2022-09-04T21:38:08.940Z,75.86
2022-09-04T21:40:52.779Z,75.85
2022-09-04T21:43:47.190Z,75.69
2022-09-04T21:46:58.074Z,75.82
2022-09-04T21:50:15.498Z,75.47
2022-09-04T21:53:01.054Z,75.19
2022-09-04T21:59:15.410Z,75.24
2022-09-04T22:02:35.357Z,74.90
2022-09-04T22:02:36.515Z,75.25
2022-09-04T22:04:58.265Z,74.93
2022-09-04T22:10:49.472Z,74.93
2022-09-04T22:13:37.628Z,74.46
2022-09-04T22:14:15.649Z,74.46
2022-09-04T22:17:06.762Z,74.15
2022-09-04T22:19:55.045Z,74.09
2022-09-04T22:22:49.708Z,73.58
2022-09-04T22:25:45.066Z,73.63
2022-09-04T22:28:42.967Z,73.33
2022-09-04T22:31:29.192Z,72.99
2022-09-04T22:34:40.952Z,72.12
2022-09-04T22:37:35.702Z,72.37
2022-09-04T22:40:26.002Z,72.99
2022-09-04T22:43:15.872Z,73.42
2022-09-04T22:46:17.946Z,73.42
2022-09-04T22:49:12.125Z,73.94
2022-09-04T22:52:17.448Z,74.19
2022-09-04T22:55:36.147Z,74.27
2022-09-04T22:58:21.925Z,74.44
2022-09-04T23:01:25.171Z,75.22
2022-09-04T23:04:10.880Z,75.47
2022-09-04T23:12:42.773Z,75.98
2022-09-04T23:13:43.965Z,76.33
2022-09-04T23:13:57.503Z,76.18
2022-09-04T23:15:36.327Z,76.88
2022-09-04T23:23:00.047Z,76.89
2022-09-04T23:26:38.495Z,76.93
2022-09-04T23:26:44.301Z,76.66
2022-09-04T23:28:21.438Z,77.00
2022-09-04T23:31:11.248Z,76.79
2022-09-04T23:34:36.777Z,77.04
2022-09-04T23:37:24.507Z,77.76
2022-09-04T23:40:25.687Z,77.88
2022-09-04T23:43:21.318Z,77.66
2022-09-04T23:46:23.641Z,77.69
2022-09-04T23:49:28.370Z,77.72
2022-09-04T23:51:55.151Z,77.63
2022-09-04T23:54:30.914Z,77.66
2022-09-04T23:57:16.882Z,77.35
